createdAt,value
2022-09-03T00:00:11.914Z,0.0
2022-09-03T00:06:10.389Z,0.0
2022-09-03T00:10:24.674Z,0.0
2022-09-03T00:15:31.051Z,0.0
2022-09-03T00:20:27.406Z,0.0
2022-09-03T00:25:33.934Z,0.0
2022-09-03T00:30:50.479Z,0.0
2022-09-03T00:58:06.800Z,0.0
2022-09-03T01:03:34.223Z,0.0
2022-09-03T01:08:40.599Z,0.0
2022-09-03T01:13:16.984Z,0.0
2022-09-03T01:18:33.483Z,0.0
2022-09-03T01:23:39.872Z,0.0
2022-09-03T01:29:00.345Z,0.0
2022-09-03T01:33:52.663Z,0.0
2022-09-03T01:38:59.184Z,0.0
2022-09-03T01:44:09.542Z,0.0
2022-09-03T01:49:11.909Z,0.0
2022-09-03T01:54:21.255Z,0.0
2022-09-03T01:59:24.840Z,0.0
2022-09-03T02:04:31.228Z,0.0
2022-09-03T02:09:37.601Z,0.0
2022-09-03T02:14:43.963Z,0.0
2022-09-03T02:19:50.352Z,0.0
2022-09-03T02:24:56.721Z,0.0
2022-09-03T02:30:03.178Z,0.0
2022-09-03T02:35:09.627Z,0.0
2022-09-03T02:40:19.967Z,0.0
2022-09-03T02:45:42.413Z,0.0
2022-09-03T02:50:18.702Z,0.0
2022-09-03T02:55:42.670Z,0.0
2022-09-03T03:01:08.140Z,0.0
2022-09-03T03:05:51.462Z,0.0
2022-09-03T03:11:32.930Z,0.0
2022-09-03T03:16:40.502Z,0.0
2022-09-03T03:23:59.064Z,0.0
2022-09-03T03:26:53.235Z,0.0
2022-09-03T03:32:19.674Z,0.0
2022-09-03T03:37:30.052Z,0.0
2022-09-03T03:42:12.400Z,0.0
2022-09-03T03:47:39.943Z,0.0
2022-09-03T03:52:26.388Z,0.0
2022-09-03T03:57:32.780Z,0.0
2022-09-03T04:02:39.425Z,0.0
2022-09-03T04:08:09.674Z,0.0
2022-09-03T04:13:12.030Z,0.0
2022-09-03T04:18:18.411Z,0.0
2022-09-03T04:23:04.806Z,0.0
2022-09-03T04:28:11.298Z,0.0
2022-09-03T04:33:17.887Z,0.0
2022-09-03T04:38:24.389Z,0.0
2022-09-03T04:43:30.688Z,5.0
2022-09-03T04:48:37.808Z,5.0
2022-09-03T04:53:43.467Z,10.0
2022-09-03T04:58:39.823Z,15.0
2022-09-03T05:04:40.484Z,25.0
2022-09-03T05:09:02.879Z,30.0
2022-09-03T05:14:13.261Z,35.0
2022-09-03T05:19:15.632Z,40.0
2022-09-03T05:24:22.012Z,45.0
2022-09-03T05:29:32.392Z,50.0
2022-09-03T05:34:34.809Z,55.0
2022-09-03T05:39:31.323Z,65.0
2022-09-03T05:44:47.668Z,65.0
2022-09-03T05:49:54.056Z,75.0
2022-09-03T05:55:04.456Z,85.0
2022-09-03T06:00:06.820Z,85.0
2022-09-03T06:05:37.260Z,95.0
2022-09-03T06:10:24.972Z,100.0
2022-09-03T06:15:15.956Z,105.0
2022-09-03T06:21:00.402Z,110.0
2022-09-03T06:25:38.759Z,115.0
2022-09-03T06:31:29.281Z,125.0
2022-09-03T06:36:15.571Z,130.0
2022-09-03T06:41:21.950Z,135.0
2022-09-03T06:46:04.363Z,145.0
2022-09-03T06:51:00.778Z,155.0
2022-09-03T06:56:07.790Z,170.0
2022-09-03T07:01:23.640Z,355.0
2022-09-03T07:06:29.955Z,435.0
2022-09-03T07:11:36.341Z,190.0
2022-09-03T07:16:42.788Z,510.0
2022-09-03T07:21:50.562Z,540.0
2022-09-03T07:26:55.483Z,590.0
2022-09-03T07:32:05.931Z,610.0
2022-09-03T07:37:08.263Z,640.0
2022-09-03T07:42:14.748Z,685.0
2022-09-03T07:47:41.174Z,790.0
2022-09-03T07:52:51.569Z,930.0
2022-09-03T08:06:16.576Z,905.0
2022-09-03T08:12:04.067Z,705.0
2022-09-03T08:22:12.835Z,750.0
2022-09-03T08:27:20.219Z,805.0
2022-09-03T08:32:26.580Z,885.0
2022-09-03T08:37:32.965Z,1105.0
2022-09-03T08:42:39.332Z,1315.0
2022-09-03T08:47:45.720Z,1375.0
2022-09-03T08:54:08.282Z,1485.0
2022-09-03T08:57:58.478Z,1620.0
2022-09-03T09:03:04.897Z,1715.0
2022-09-03T09:08:11.252Z,1895.0
2022-09-03T09:13:17.651Z,1835.0
2022-09-03T09:18:14.021Z,1970.0
2022-09-03T09:24:25.596Z,1990.0
2022-09-03T09:32:21.800Z,1975.0
2022-09-03T09:35:37.626Z,2140.0
2022-09-03T09:40:45.561Z,2095.0
2022-09-03T09:46:11.525Z,2115.0
2022-09-03T09:50:57.774Z,2235.0
2022-09-03T09:56:04.227Z,2235.0
2022-09-03T10:01:10.624Z,2095.0
2022-09-03T10:06:20.968Z,2130.0
2022-09-03T10:11:27.364Z,2160.0
2022-09-03T10:16:29.758Z,2155.0
2022-09-03T10:21:36.153Z,2275.0
2022-09-03T10:26:42.529Z,2175.0
2022-09-03T10:31:48.909Z,2050.0
2022-09-03T10:36:59.286Z,2445.0
2022-09-03T10:42:01.695Z,2760.0
2022-09-03T10:46:58.049Z,2835.0
2022-09-03T10:52:14.465Z,2490.0
2022-09-03T10:57:21.966Z,2515.0
2022-09-03T11:02:28.416Z,2170.0
2022-09-03T11:12:21.880Z,2515.0
2022-09-03T11:17:49.301Z,2265.0
2022-09-03T11:22:35.676Z,2440.0
2022-09-03T11:27:43.630Z,2400.0
2022-09-03T11:32:55.873Z,2315.0
2022-09-03T11:37:46.375Z,2500.0
2022-09-03T11:43:02.789Z,2385.0
2022-09-03T11:48:09.231Z,2440.0
2022-09-03T11:53:15.715Z,2395.0
2022-09-03T11:58:22.117Z,2315.0
2022-09-03T12:03:28.505Z,2190.0
2022-09-03T12:08:34.866Z,2305.0
2022-09-03T12:13:41.250Z,2380.0
2022-09-03T12:18:47.625Z,2350.0
2022-09-03T12:24:37.865Z,540.0
2022-09-03T12:30:25.939Z,2170.0
2022-09-03T12:34:49.773Z,2445.0
2022-09-03T12:40:08.347Z,2190.0
2022-09-03T12:44:52.585Z,2200.0
2022-09-03T12:50:10.967Z,2270.0
2022-09-03T12:55:16.390Z,2285.0
2022-09-03T13:00:23.060Z,2375.0
2022-09-03T13:06:03.523Z,2300.0
2022-09-03T13:11:09.902Z,2225.0
2022-09-03T13:16:17.331Z,2060.0
2022-09-03T13:21:14.688Z,2025.0
2022-09-03T13:26:31.100Z,2055.0
2022-09-03T13:31:37.569Z,2095.0
2022-09-03T13:36:34.049Z,2210.0
2022-09-03T13:41:50.462Z,1945.0
2022-09-03T13:46:46.818Z,1935.0
2022-09-03T13:52:02.248Z,2015.0
2022-09-03T13:57:37.676Z,1895.0
2022-09-03T14:02:20.129Z,1900.0
2022-09-03T14:07:22.401Z,1890.0
2022-09-03T14:12:52.800Z,1755.0
2022-09-03T14:17:35.128Z,1720.0
2022-09-03T14:22:31.486Z,1650.0
2022-09-03T14:27:46.879Z,855.0
2022-09-03T14:33:08.313Z,440.0
2022-09-03T14:38:00.638Z,440.0
2022-09-03T14:43:07.025Z,430.0
2022-09-03T14:48:17.411Z,360.0
2022-09-03T14:53:09.836Z,315.0
2022-09-03T14:58:26.356Z,305.0
2022-09-03T15:03:22.880Z,305.0
2022-09-03T15:08:39.240Z,295.0
2022-09-03T15:13:35.556Z,280.0
2022-09-03T15:18:51.951Z,275.0
2022-09-03T15:23:58.320Z,270.0
2022-09-03T15:29:06.278Z,255.0
2022-09-03T15:34:12.788Z,345.0
2022-09-03T15:39:19.278Z,250.0
2022-09-03T15:44:25.632Z,250.0
2022-09-03T15:49:36.580Z,225.0
2022-09-03T15:54:38.950Z,190.0
2022-09-03T15:59:35.313Z,200.0
2022-09-03T16:04:51.727Z,195.0
2022-09-03T16:10:02.016Z,190.0
2022-09-03T16:15:04.549Z,170.0
2022-09-03T16:20:10.928Z,150.0
2022-09-03T16:26:30.300Z,165.0
2022-09-03T16:30:25.544Z,160.0
2022-09-03T16:36:17.009Z,150.0
2022-09-03T16:41:38.418Z,330.0
2022-09-03T16:46:20.755Z,120.0
2022-09-03T16:52:01.209Z,110.0
2022-09-03T16:56:43.552Z,90.0
2022-09-03T17:02:50.127Z,95.0
2022-09-03T17:07:40.498Z,90.0
2022-09-03T17:12:02.796Z,80.0
2022-09-03T17:17:09.167Z,70.0
2022-09-03T17:22:15.565Z,65.0
2022-09-03T17:27:21.938Z,60.0
2022-09-03T17:32:28.331Z,50.0
2022-09-03T17:37:34.714Z,40.0
2022-09-03T17:43:02.223Z,35.0
2022-09-03T17:48:08.581Z,30.0
2022-09-03T17:52:55.011Z,20.0
2022-09-03T17:58:05.406Z,15.0
2022-09-03T18:02:57.795Z,10.0
2022-09-03T18:09:15.886Z,5.0
2022-09-03T18:13:26.353Z,5.0
2022-09-03T18:18:48.648Z,0.0
2022-09-03T18:23:54.949Z,0.0
2022-09-03T18:30:13.546Z,0.0
2022-09-03T18:33:47.757Z,0.0
2022-09-03T18:38:44.122Z,0.0
2022-09-03T18:44:00.520Z,0.0
2022-09-03T18:49:26.957Z,0.0
2022-09-03T18:54:13.299Z,0.0
2022-09-03T18:59:39.787Z,0.0
2022-09-03T19:04:26.253Z,0.0
2022-09-03T19:09:32.627Z,0.0
2022-09-03T19:14:39.017Z,0.0
2022-09-03T19:19:45.393Z,0.0
2022-09-03T19:25:11.829Z,0.0
2022-09-03T19:30:18.213Z,0.0
2022-09-03T19:34:54.523Z,0.0
2022-09-03T19:40:11.047Z,0.0
2022-09-03T19:45:17.520Z,0.0
2022-09-03T19:50:23.912Z,0.0
2022-09-03T19:55:31.554Z,0.0
2022-09-03T20:00:36.773Z,0.0
2022-09-03T20:05:43.166Z,0.0
2022-09-03T20:11:33.635Z,0.0
2022-09-03T20:15:55.986Z,0.0
2022-09-03T20:21:22.469Z,0.0
2022-09-03T20:26:10.708Z,0.0
2022-09-03T20:31:29.460Z,0.0
2022-09-03T20:36:21.727Z,0.0
2022-09-03T20:41:18.077Z,0.0
2022-09-03T20:46:37.718Z,0.0
2022-09-03T20:51:44.013Z,0.0
2022-09-03T20:56:50.385Z,0.0
2022-09-03T21:01:56.847Z,0.0
2022-09-03T21:07:04.725Z,0.0
2022-09-03T21:12:11.490Z,0.0
2022-09-03T21:17:19.921Z,0.0
2022-09-03T21:22:25.403Z,0.0
2022-09-03T21:27:31.811Z,0.0
2022-09-03T21:32:38.183Z,0.0
2022-09-03T21:37:44.571Z,0.0
2022-09-03T21:49:01.067Z,0.0
2022-09-03T21:54:43.521Z,0.0
2022-09-03T21:59:50.901Z,0.0
2022-09-03T22:04:57.391Z,0.0
2022-09-03T22:09:53.846Z,0.0
2022-09-03T22:15:10.347Z,0.0
2022-09-03T22:22:37.003Z,0.0
2022-09-03T22:26:07.213Z,0.0
2022-09-03T22:30:29.579Z,0.0
2022-09-03T22:35:36.049Z,0.0
2022-09-03T22:41:06.486Z,0.0
2022-09-03T22:45:48.916Z,0.0
2022-09-03T22:50:55.194Z,0.0
2022-09-03T22:56:21.614Z,0.0
2022-09-03T23:01:08.051Z,0.0
2022-09-03T23:06:14.407Z,0.0
2022-09-03T23:11:20.785Z,0.0
2022-09-03T23:16:27.216Z,0.0
2022-09-03T23:21:57.625Z,0.0
2022-09-03T23:26:59.966Z,0.0
2022-09-03T23:31:45.374Z,0.0
2022-09-03T23:37:32.919Z,0.0
2022-09-03T23:42:23.107Z,0.0
2022-09-03T23:47:25.478Z,0.0
2022-09-03T23:52:56.071Z,0.0
2022-09-03T23:57:38.410Z,0.0
